Time;durP1;ratioP1;P1;durP2;ratioP2;P2;SDS_P1;SDS_P2;PMS_P1;PMS_P2;Temp;Humidity;BMP_temperature;BMP_pressure;BME280_temperature;BME280_humidity;BME280_pressure;Samples;Min_cycle;Max_cycle;Signal;HPM_P1;HPM_P2
2022/02/22 00:01:17;;;;;;;16.25;11.90;;;;;;;;;;4995592;28;20034;-77
2022/02/22 00:03:43;;;;;;;16.23;13.68;;;;;;;;;;5001265;28;20092;-77
2022/02/22 00:06:10;;;;;;;14.85;12.63;;;;;;;;;;5002546;28;20022;-77
2022/02/22 00:08:36;;;;;;;23.55;17.30;;;;;;;;;;5000626;28;20022;-77
2022/02/22 00:11:02;;;;;;;28.70;20.77;;;;;;;;;;5001753;28;20033;-77
2022/02/22 00:13:29;;;;;;;21.20;17.30;;;;;;;;;;5002261;28;20488;-77
2022/02/22 00:15:56;;;;;;;21.25;18.15;;;;;;;;;;5000288;28;20170;-77
2022/02/22 00:18:22;;;;;;;19.88;15.45;;;;;;;;;;5002180;28;20184;-77
2022/02/22 00:20:49;;;;;;;17.85;15.00;;;;;;;;;;5005721;28;20373;-77
2022/02/22 00:23:15;;;;;;;19.50;16.40;;;;;;;;;;5004186;28;20037;-77
2022/02/22 00:25:41;;;;;;;19.55;15.68;;;;;;;;;;5005754;28;20022;-77
2022/02/22 00:28:07;;;;;;;16.80;14.88;;;;;;;;;;5005337;28;20027;-77
2022/02/22 00:30:33;;;;;;;18.70;14.13;;;;;;;;;;5004307;28;20049;-77
2022/02/22 00:33:00;;;;;;;24.27;19.95;;;;;;;;;;5005454;28;20050;-77
2022/02/22 00:35:26;;;;;;;26.15;20.48;;;;;;;;;;5007999;28;20033;-77
2022/02/22 00:37:52;;;;;;;32.72;24.40;;;;;;;;;;5011778;28;20034;-77
2022/02/22 00:40:18;;;;;;;27.92;20.13;;;;;;;;;;5015428;28;20037;-77
2022/02/22 00:42:44;;;;;;;25.35;19.52;;;;;;;;;;5015588;28;20461;-77
2022/02/22 00:45:11;;;;;;;25.92;20.27;;;;;;;;;;5015088;28;20065;-77
2022/02/22 00:47:38;;;;;;;24.05;18.63;;;;;;;;;;5014056;28;20032;-77
2022/02/22 00:50:05;;;;;;;23.17;17.83;;;;;;;;;;5014896;28;20425;-77
2022/02/22 00:52:31;;;;;;;23.38;17.42;;;;;;;;;;5015179;28;20026;-77
2022/02/22 00:54:57;;;;;;;21.38;17.40;;;;;;;;;;5014953;28;20101;-77
2022/02/22 00:57:23;;;;;;;20.80;16.40;;;;;;;;;;5008989;28;20037;-77
2022/02/22 00:59:49;;;;;;;18.77;15.18;;;;;;;;;;5003995;28;20026;-77
2022/02/22 01:02:16;;;;;;;21.13;17.40;;;;;;;;;;5005437;28;20105;-77
2022/02/22 01:04:42;;;;;;;23.83;18.92;;;;;;;;;;5004302;28;20118;-77
2022/02/22 01:07:08;;;;;;;21.63;17.67;;;;;;;;;;5006325;28;20025;-77
2022/02/22 01:09:35;;;;;;;23.90;19.83;;;;;;;;;;5015191;28;20034;-77
2022/02/22 01:12:02;;;;;;;21.70;16.00;;;;;;;;;;5014608;28;20033;-77
2022/02/22 01:14:28;;;;;;;20.33;15.27;;;;;;;;;;5014984;28;20033;-77
2022/02/22 01:16:54;;;;;;;21.20;14.93;;;;;;;;;;5014669;28;20075;-77
2022/02/22 01:19:20;;;;;;;21.92;16.13;;;;;;;;;;5014587;28;20152;-77
2022/02/22 01:21:46;;;;;;;22.58;16.92;;;;;;;;;;5014801;28;20061;-77
2022/02/22 01:24:12;;;;;;;20.58;16.63;;;;;;;;;;5014481;28;20104;-77
2022/02/22 01:26:39;;;;;;;21.50;17.05;;;;;;;;;;5014569;28;20033;-77
2022/02/22 01:29:05;;;;;;;19.00;14.88;;;;;;;;;;5014473;28;20073;-77
2022/02/22 01:31:31;;;;;;;16.85;13.68;;;;;;;;;;5013458;28;20054;-77
2022/02/22 01:33:57;;;;;;;18.42;13.02;;;;;;;;;;5014533;28;20107;-77
2022/02/22 01:36:24;;;;;;;16.40;13.15;;;;;;;;;;5014292;28;20088;-77
2022/02/22 01:38:52;;;;;;;15.23;12.20;;;;;;;;;;5014287;28;20125;-77
2022/02/22 01:41:20;;;;;;;14.25;11.70;;;;;;;;;;5014077;28;20128;-77
2022/02/22 01:43:47;;;;;;;21.17;15.88;;;;;;;;;;5014297;28;20034;-77
2022/02/22 01:46:13;;;;;;;21.27;16.95;;;;;;;;;;5013795;28;20030;-77
2022/02/22 01:48:39;;;;;;;32.17;23.58;;;;;;;;;;5014283;28;20465;-77
2022/02/22 01:51:05;;;;;;;20.83;17.02;;;;;;;;;;5014033;28;20030;-77
2022/02/22 01:53:32;;;;;;;16.80;13.05;;;;;;;;;;5014071;28;20030;-77
2022/02/22 01:55:59;;;;;;;17.13;14.25;;;;;;;;;;5014091;28;20034;-77
2022/02/22 01:58:26;;;;;;;17.75;14.80;;;;;;;;;;5013802;28;20491;-77
2022/02/22 02:00:52;;;;;;;19.20;13.15;;;;;;;;;;5012929;28;20100;-77
2022/02/22 02:03:18;;;;;;;15.90;13.70;;;;;;;;;;5013636;28;20029;-77
2022/02/22 02:05:45;;;;;;;16.77;12.65;;;;;;;;;;5012600;28;20033;-77
2022/02/22 02:08:11;;;;;;;14.75;12.15;;;;;;;;;;5013586;28;20104;-77
2022/02/22 02:10:37;;;;;;;14.90;12.70;;;;;;;;;;5013743;28;20392;-76
2022/02/22 02:13:04;;;;;;;15.95;12.52;;;;;;;;;;5013770;28;20026;-76
2022/02/22 02:15:30;;;;;;;17.15;13.20;;;;;;;;;;5012110;28;20141;-76
2022/02/22 02:17:56;;;;;;;17.67;12.95;;;;;;;;;;5013726;28;20501;-77
2022/02/22 02:20:22;;;;;;;16.92;14.13;;;;;;;;;;5013279;28;20036;-76
2022/02/22 02:22:49;;;;;;;16.95;13.15;;;;;;;;;;5013592;28;20101;-77
2022/02/22 02:25:15;;;;;;;13.43;11.50;;;;;;;;;;5013123;28;20037;-76
2022/02/22 02:27:42;;;;;;;19.00;13.68;;;;;;;;;;5001988;28;20081;-77
2022/02/22 02:30:09;;;;;;;17.55;13.75;;;;;;;;;;5003788;28;20381;-76
2022/02/22 02:32:37;;;;;;;16.05;13.52;;;;;;;;;;5003148;28;20062;-76
2022/02/22 02:35:06;;;;;;;14.98;12.88;;;;;;;;;;5002187;28;20474;-77
2022/02/22 02:37:39;;;;;;;13.85;12.10;;;;;;;;;;5002572;28;20065;-76
2022/02/22 02:40:07;;;;;;;15.02;12.55;;;;;;;;;;4993625;28;20085;-77
2022/02/22 02:42:33;;;;;;;16.10;13.35;;;;;;;;;;4993429;28;20474;-77
2022/02/22 02:44:59;;;;;;;16.73;14.38;;;;;;;;;;4993526;28;20034;-77
2022/02/22 02:47:25;;;;;;;17.35;14.63;;;;;;;;;;4993114;28;20196;-77
2022/02/22 02:49:51;;;;;;;18.02;13.98;;;;;;;;;;4993542;28;20026;-76
2022/02/22 02:52:17;;;;;;;14.90;12.38;;;;;;;;;;4993104;28;20088;-76
2022/02/22 02:54:44;;;;;;;18.75;14.10;;;;;;;;;;4993210;28;20027;-77
2022/02/22 02:57:10;;;;;;;19.27;14.70;;;;;;;;;;4993474;28;20022;-77
2022/02/22 02:59:36;;;;;;;20.70;14.15;;;;;;;;;;4993156;28;20031;-76
2022/02/22 03:02:02;;;;;;;15.38;13.02;;;;;;;;;;4993194;28;20027;-77
2022/02/22 03:04:29;;;;;;;16.50;13.00;;;;;;;;;;4992788;28;20034;-77
2022/02/22 03:06:55;;;;;;;18.40;14.07;;;;;;;;;;5008068;28;20545;-76
2022/02/22 03:09:22;;;;;;;20.25;14.50;;;;;;;;;;4992739;28;20042;-77
2022/02/22 03:11:48;;;;;;;16.77;12.63;;;;;;;;;;4993086;28;20463;-77
2022/02/22 03:14:14;;;;;;;17.02;13.05;;;;;;;;;;4993032;28;20030;-77
2022/02/22 03:16:41;;;;;;;16.25;13.15;;;;;;;;;;4992814;28;20026;-77
2022/02/22 03:19:07;;;;;;;18.80;14.80;;;;;;;;;;4993194;28;20437;-77
2022/02/22 03:21:33;;;;;;;17.42;14.23;;;;;;;;;;5007714;28;20036;-77
2022/02/22 03:24:00;;;;;;;18.73;15.35;;;;;;;;;;4993041;28;20378;-77
2022/02/22 03:26:26;;;;;;;20.88;15.30;;;;;;;;;;4992632;28;20093;-77
2022/02/22 03:28:58;;;;;;;20.27;14.05;;;;;;;;;;4993001;28;20041;-77
2022/02/22 03:31:24;;;;;;;20.42;15.90;;;;;;;;;;4992309;28;20392;-76
2022/02/22 03:33:52;;;;;;;22.67;15.52;;;;;;;;;;4992816;28;20034;-76
2022/02/22 03:36:25;;;;;;;20.92;14.32;;;;;;;;;;4992598;28;20045;-76
2022/02/22 03:38:51;;;;;;;17.77;13.88;;;;;;;;;;4992847;28;20030;-77
2022/02/22 03:41:17;;;;;;;16.38;13.52;;;;;;;;;;4992717;28;20065;-77
2022/02/22 03:43:44;;;;;;;14.45;12.88;;;;;;;;;;4992470;28;20030;-77
2022/02/22 03:46:11;;;;;;;17.70;13.65;;;;;;;;;;4992619;28;20077;-76
2022/02/22 03:48:37;;;;;;;16.17;12.90;;;;;;;;;;4992496;28;20030;-77
2022/02/22 03:51:03;;;;;;;15.45;12.48;;;;;;;;;;4992578;28;20027;-77
2022/02/22 03:53:29;;;;;;;18.15;13.15;;;;;;;;;;4993005;28;20391;-76
2022/02/22 03:55:55;;;;;;;15.15;12.18;;;;;;;;;;4996834;28;20367;-77
2022/02/22 03:58:22;;;;;;;17.60;13.20;;;;;;;;;;4996473;28;20031;-76
2022/02/22 04:00:48;;;;;;;17.23;13.90;;;;;;;;;;4996532;28;20037;-76
2022/02/22 04:03:14;;;;;;;18.48;14.60;;;;;;;;;;4996538;28;20105;-77
2022/02/22 04:05:42;;;;;;;17.85;14.32;;;;;;;;;;4996060;28;20030;-77
2022/02/22 04:08:08;;;;;;;19.77;15.77;;;;;;;;;;4996677;28;20470;-77
2022/02/22 04:10:34;;;;;;;19.80;15.70;;;;;;;;;;4996046;28;20072;-77
2022/02/22 04:13:00;;;;;;;17.73;14.00;;;;;;;;;;4996296;28;20038;-77
2022/02/22 04:15:27;;;;;;;19.75;14.88;;;;;;;;;;4996211;28;20030;-77
2022/02/22 04:17:53;;;;;;;17.70;15.32;;;;;;;;;;4996006;28;20030;-76
2022/02/22 04:20:19;;;;;;;19.10;15.15;;;;;;;;;;4996402;28;20030;-77
2022/02/22 04:22:45;;;;;;;20.58;15.75;;;;;;;;;;4995809;28;20081;-77
2022/02/22 04:25:11;;;;;;;20.73;15.90;;;;;;;;;;4996161;28;20045;-77
2022/02/22 04:27:37;;;;;;;21.23;15.65;;;;;;;;;;4995842;28;20072;-76
2022/02/22 04:30:05;;;;;;;18.88;13.85;;;;;;;;;;4996157;28;20034;-76
2022/02/22 04:32:31;;;;;;;21.33;14.50;;;;;;;;;;4995605;28;20062;-77
2022/02/22 04:34:57;;;;;;;20.38;14.90;;;;;;;;;;4995916;28;20033;-76
2022/02/22 04:37:23;;;;;;;20.20;14.55;;;;;;;;;;4996101;28;20038;-77
2022/02/22 04:39:50;;;;;;;18.55;14.38;;;;;;;;;;4995548;28;20104;-77
2022/02/22 04:42:17;;;;;;;19.65;15.70;;;;;;;;;;5011497;28;20382;-77
2022/02/22 04:44:46;;;;;;;24.23;19.33;;;;;;;;;;4995387;28;20035;-77
2022/02/22 04:47:12;;;;;;;25.48;20.13;;;;;;;;;;4995866;28;20206;-77
2022/02/22 04:49:38;;;;;;;34.13;24.42;;;;;;;;;;4995267;28;20034;-77
2022/02/22 04:52:05;;;;;;;51.75;37.35;;;;;;;;;;4995676;28;20034;-77
2022/02/22 04:54:32;;;;;;;25.58;19.63;;;;;;;;;;4995621;28;20045;-77
2022/02/22 04:56:58;;;;;;;23.90;19.02;;;;;;;;;;4995490;28;20030;-76
2022/02/22 04:59:24;;;;;;;21.65;17.13;;;;;;;;;;4995540;28;20030;-77
2022/02/22 05:01:51;;;;;;;25.27;16.70;;;;;;;;;;4994893;28;20034;-77
2022/02/22 05:04:17;;;;;;;24.23;17.70;;;;;;;;;;4995345;28;20100;-77
2022/02/22 05:06:43;;;;;;;23.70;18.05;;;;;;;;;;4993379;28;20026;-77
2022/02/22 05:09:10;;;;;;;24.52;18.42;;;;;;;;;;4995264;28;20033;-77
2022/02/22 05:11:37;;;;;;;25.25;18.73;;;;;;;;;;4995215;28;20113;-77
2022/02/22 05:14:03;;;;;;;38.13;27.83;;;;;;;;;;4995429;28;20022;-77
2022/02/22 05:16:35;;;;;;;35.47;24.52;;;;;;;;;;5005453;28;20017;-77
2022/02/22 05:19:01;;;;;;;28.95;20.95;;;;;;;;;;5014635;28;20423;-77
2022/02/22 05:21:27;;;;;;;27.63;23.05;;;;;;;;;;5013437;28;20022;-76
2022/02/22 05:23:53;;;;;;;28.63;22.20;;;;;;;;;;5014302;28;20123;-77
2022/02/22 05:26:19;;;;;;;29.83;24.25;;;;;;;;;;5014620;28;20026;-77
2022/02/22 05:28:46;;;;;;;27.13;22.30;;;;;;;;;;5012968;28;20489;-77
2022/02/22 05:31:17;;;;;;;34.05;23.17;;;;;;;;;;5014219;28;20054;-77
2022/02/22 05:33:44;;;;;;;42.50;28.98;;;;;;;;;;5014261;28;20104;-77
2022/02/22 05:36:10;;;;;;;39.65;27.10;;;;;;;;;;5014420;28;20033;-77
2022/02/22 05:38:36;;;;;;;43.50;29.67;;;;;;;;;;5014015;28;20207;-77
2022/02/22 05:41:02;;;;;;;42.00;28.95;;;;;;;;;;5014108;28;20058;-77
2022/02/22 05:43:28;;;;;;;38.05;27.98;;;;;;;;;;5014308;28;20499;-77
2022/02/22 05:45:55;;;;;;;33.88;24.70;;;;;;;;;;5013965;28;20431;-77
2022/02/22 05:48:21;;;;;;;26.25;21.02;;;;;;;;;;5014455;28;20062;-77
2022/02/22 05:50:47;;;;;;;26.20;19.67;;;;;;;;;;5014029;28;20536;-77
2022/02/22 05:53:14;;;;;;;27.27;20.75;;;;;;;;;;5013820;28;20026;-77
2022/02/22 05:55:40;;;;;;;28.42;22.77;;;;;;;;;;5014089;28;20022;-77
2022/02/22 05:58:06;;;;;;;36.13;25.20;;;;;;;;;;5013834;28;20033;-77
2022/02/22 06:00:32;;;;;;;26.55;21.63;;;;;;;;;;5014171;28;20384;-77
2022/02/22 06:02:58;;;;;;;27.50;20.98;;;;;;;;;;5013609;28;20101;-76
2022/02/22 06:05:24;;;;;;;23.88;18.80;;;;;;;;;;5013789;28;20030;-77
2022/02/22 06:07:50;;;;;;;22.70;16.15;;;;;;;;;;5013410;28;20223;-76
2022/02/22 06:10:16;;;;;;;21.08;17.95;;;;;;;;;;5013535;28;20026;-77
2022/02/22 06:12:48;;;;;;;18.15;16.17;;;;;;;;;;5013735;28;20026;-76
2022/02/22 06:15:14;;;;;;;22.70;17.63;;;;;;;;;;5013433;28;20097;-76
2022/02/22 06:17:41;;;;;;;35.85;26.02;;;;;;;;;;5013013;28;20030;-76
2022/02/22 06:20:08;;;;;;;31.63;23.90;;;;;;;;;;5012500;28;20060;-77
2022/02/22 06:22:35;;;;;;;42.40;33.40;;;;;;;;;;5013357;28;20029;-77
2022/02/22 06:25:01;;;;;;;60.47;44.67;;;;;;;;;;5013225;28;20030;-77
2022/02/22 06:27:27;;;;;;;203.02;129.80;;;;;;;;;;5012379;28;20077;-78
2022/02/22 06:29:53;;;;;;;125.90;89.07;;;;;;;;;;5011992;28;20112;-77
2022/02/22 06:32:20;;;;;;;83.30;59.97;;;;;;;;;;5009580;28;20199;-76
2022/02/22 06:34:46;;;;;;;54.38;33.70;;;;;;;;;;5011764;28;20092;-76
2022/02/22 06:37:12;;;;;;;46.75;31.95;;;;;;;;;;5012080;28;20034;-76
2022/02/22 06:39:38;;;;;;;45.13;31.75;;;;;;;;;;5011264;28;20030;-78
2022/02/22 06:42:04;;;;;;;33.42;24.75;;;;;;;;;;5011964;28;20457;-79
2022/02/22 06:44:31;;;;;;;28.02;21.60;;;;;;;;;;5011935;28;20109;-78
2022/02/22 06:46:57;;;;;;;32.85;24.75;;;;;;;;;;5010940;28;20385;-78
2022/02/22 06:49:23;;;;;;;35.83;27.00;;;;;;;;;;5018044;28;20394;-76
2022/02/22 06:51:50;;;;;;;25.08;20.60;;;;;;;;;;4992261;28;20089;-76
2022/02/22 06:54:17;;;;;;;39.97;31.08;;;;;;;;;;4992466;28;20040;-76
2022/02/22 06:56:43;;;;;;;37.28;31.13;;;;;;;;;;4991802;28;20038;-77
2022/02/22 06:59:09;;;;;;;50.83;39.83;;;;;;;;;;4992074;28;20026;-77
2022/02/22 07:01:35;;;;;;;50.70;40.35;;;;;;;;;;4991557;28;20022;-77
2022/02/22 07:04:01;;;;;;;48.45;40.00;;;;;;;;;;4991848;28;20061;-77
2022/02/22 07:06:27;;;;;;;57.65;45.35;;;;;;;;;;5010165;28;20084;-76
2022/02/22 07:08:53;;;;;;;59.17;49.58;;;;;;;;;;5011474;28;20466;-77
2022/02/22 07:11:19;;;;;;;62.38;49.38;;;;;;;;;;4994467;28;20110;-76
2022/02/22 07:13:45;;;;;;;63.17;49.35;;;;;;;;;;4998850;28;20478;-77
2022/02/22 07:16:14;;;;;;;47.08;38.70;;;;;;;;;;5001415;28;20030;-77
2022/02/22 07:18:40;;;;;;;26.73;23.15;;;;;;;;;;4998839;28;20085;-77
2022/02/22 07:21:06;;;;;;;32.45;27.52;;;;;;;;;;4990974;28;20023;-76
2022/02/22 07:23:32;;;;;;;31.48;26.15;;;;;;;;;;4991349;28;20062;-76
2022/02/22 07:25:58;;;;;;;34.80;28.30;;;;;;;;;;4991276;28;20026;-77
2022/02/22 07:28:24;;;;;;;36.90;25.95;;;;;;;;;;4990608;28;20426;-76
2022/02/22 07:30:50;;;;;;;38.25;28.42;;;;;;;;;;4991512;28;20038;-78
2022/02/22 07:33:16;;;;;;;34.47;25.80;;;;;;;;;;4991317;28;20382;-76
2022/02/22 07:35:42;;;;;;;35.30;28.65;;;;;;;;;;4991988;28;20046;-76
2022/02/22 07:38:09;;;;;;;27.52;24.02;;;;;;;;;;4997616;28;20037;-78
2022/02/22 07:40:35;;;;;;;31.80;23.00;;;;;;;;;;4998423;28;20041;-78
2022/02/22 07:43:01;;;;;;;26.20;20.33;;;;;;;;;;4999877;28;20037;-79
2022/02/22 07:45:28;;;;;;;35.88;29.02;;;;;;;;;;5000765;28;20528;-78
2022/02/22 07:47:54;;;;;;;25.42;19.98;;;;;;;;;;4999800;28;20101;-78
2022/02/22 07:50:20;;;;;;;29.60;20.60;;;;;;;;;;5001288;28;20033;-80
2022/02/22 07:52:47;;;;;;;24.73;19.27;;;;;;;;;;4998945;28;20026;-78
2022/02/22 07:55:14;;;;;;;26.15;19.35;;;;;;;;;;5001754;28;20030;-80
2022/02/22 07:57:40;;;;;;;29.45;23.20;;;;;;;;;;4997715;28;20474;-80
2022/02/22 08:00:08;;;;;;;24.63;19.95;;;;;;;;;;5000762;28;20076;-79
2022/02/22 08:02:34;;;;;;;39.90;26.52;;;;;;;;;;5001001;28;20058;-78
2022/02/22 08:05:00;;;;;;;228.77;75.95;;;;;;;;;;4997741;28;20603;-80
2022/02/22 08:07:27;;;;;;;32.35;23.77;;;;;;;;;;5000775;28;20021;-77
2022/02/22 08:09:53;;;;;;;30.92;19.52;;;;;;;;;;5000094;28;20034;-80
2022/02/22 08:12:19;;;;;;;26.45;17.55;;;;;;;;;;4999412;28;20022;-78
2022/02/22 08:14:45;;;;;;;24.42;17.75;;;;;;;;;;4999425;28;20026;-78
2022/02/22 08:17:11;;;;;;;24.95;20.45;;;;;;;;;;4999666;28;20397;-80
2022/02/22 08:19:37;;;;;;;22.08;16.92;;;;;;;;;;4995547;28;20081;-79
2022/02/22 08:22:04;;;;;;;25.13;20.15;;;;;;;;;;4991022;28;20027;-78
2022/02/22 08:24:30;;;;;;;21.95;19.35;;;;;;;;;;4991250;28;20053;-78
2022/02/22 08:26:57;;;;;;;30.45;21.88;;;;;;;;;;4990320;28;20165;-78
2022/02/22 08:29:24;;;;;;;29.08;22.50;;;;;;;;;;4990833;28;20030;-79
2022/02/22 08:31:50;;;;;;;20.85;16.63;;;;;;;;;;5005345;28;20437;-77
2022/02/22 08:34:17;;;;;;;28.90;24.25;;;;;;;;;;4991183;28;20038;-78
2022/02/22 08:36:43;;;;;;;34.17;27.08;;;;;;;;;;4990898;28;20178;-79
2022/02/22 08:39:09;;;;;;;22.45;16.23;;;;;;;;;;4995286;28;20033;-78
2022/02/22 08:41:35;;;;;;;16.65;13.38;;;;;;;;;;5014127;28;20041;-78
2022/02/22 08:44:02;;;;;;;19.35;16.33;;;;;;;;;;5013329;28;20030;-78
2022/02/22 08:46:28;;;;;;;14.93;13.32;;;;;;;;;;5014162;28;20026;-77
2022/02/22 08:48:54;;;;;;;16.63;14.63;;;;;;;;;;5013311;28;20392;-78
2022/02/22 08:51:21;;;;;;;17.70;14.48;;;;;;;;;;5013825;28;20091;-81
2022/02/22 08:53:56;;;;;;;25.52;14.98;;;;;;;;;;5013710;28;20022;-80
2022/02/22 08:56:22;;;;;;;25.38;14.55;;;;;;;;;;5014306;28;20026;-80
2022/02/22 08:58:48;;;;;;;16.42;13.55;;;;;;;;;;5013239;28;20030;-79
2022/02/22 09:01:15;;;;;;;23.42;10.32;;;;;;;;;;5012445;28;20030;-80
2022/02/22 09:03:41;;;;;;;11.57;9.25;;;;;;;;;;5013551;28;20032;-76
2022/02/22 09:06:07;;;;;;;12.30;9.50;;;;;;;;;;5012981;28;20038;-80
2022/02/22 09:08:33;;;;;;;11.75;8.25;;;;;;;;;;5013891;28;20036;-76
2022/02/22 09:11:06;;;;;;;9.50;7.38;;;;;;;;;;5012902;28;20036;-77
2022/02/22 09:13:32;;;;;;;8.00;6.18;;;;;;;;;;5013362;28;20033;-76
2022/02/22 09:15:58;;;;;;;6.75;5.20;;;;;;;;;;5011532;28;20041;-78
2022/02/22 09:18:24;;;;;;;9.43;5.43;;;;;;;;;;5013341;28;20436;-76
2022/02/22 09:20:50;;;;;;;9.15;5.95;;;;;;;;;;5013031;28;20030;-78
2022/02/22 09:23:17;;;;;;;10.80;7.45;;;;;;;;;;5013686;28;20067;-79
2022/02/22 09:25:43;;;;;;;9.02;5.95;;;;;;;;;;5013586;28;20062;-76
2022/02/22 09:28:10;;;;;;;9.48;4.85;;;;;;;;;;5013295;28;20445;-77
2022/02/22 09:30:36;;;;;;;7.80;4.55;;;;;;;;;;5013521;28;20037;-78
2022/02/22 09:33:03;;;;;;;7.57;4.28;;;;;;;;;;5012800;28;20089;-77
2022/02/22 09:35:30;;;;;;;7.43;4.60;;;;;;;;;;5013358;28;20358;-76
2022/02/22 09:37:56;;;;;;;7.43;3.38;;;;;;;;;;5008057;28;20480;-77
2022/02/22 09:40:23;;;;;;;5.40;3.35;;;;;;;;;;5012685;28;20104;-80
2022/02/22 09:42:49;;;;;;;5.68;2.20;;;;;;;;;;5013176;28;20034;-80
2022/02/22 09:45:15;;;;;;;13.00;3.17;;;;;;;;;;5012425;28;20049;-77
2022/02/22 09:47:42;;;;;;;6.70;3.67;;;;;;;;;;5012968;28;20026;-76
2022/02/22 09:50:09;;;;;;;7.13;2.53;;;;;;;;;;5011523;28;20366;-79
2022/02/22 09:52:36;;;;;;;6.57;2.10;;;;;;;;;;5010995;28;20058;-76
2022/02/22 09:55:02;;;;;;;6.63;2.92;;;;;;;;;;5011327;28;20096;-78
2022/02/22 09:57:28;;;;;;;6.38;2.70;;;;;;;;;;5012700;28;20060;-75
2022/02/22 09:59:54;;;;;;;4.72;3.08;;;;;;;;;;5012936;28;20118;-75
2022/02/22 10:02:21;;;;;;;4.78;2.45;;;;;;;;;;5010339;28;20025;-82
2022/02/22 10:04:48;;;;;;;3.55;2.22;;;;;;;;;;4993068;28;20552;-76
2022/02/22 10:07:15;;;;;;;6.82;3.55;;;;;;;;;;4992867;28;20084;-77
2022/02/22 10:10:02;;;;;;;4.72;2.10;;;;;;;;;;4993152;28;20509;-80
2022/02/22 10:12:29;;;;;;;3.10;1.45;;;;;;;;;;5007718;28;20478;-80
2022/02/22 10:14:56;;;;;;;2.10;1.50;;;;;;;;;;4993019;28;20034;-77
2022/02/22 10:17:22;;;;;;;4.13;1.55;;;;;;;;;;5009228;28;20132;-78
2022/02/22 10:19:57;;;;;;;7.43;2.40;;;;;;;;;;5012222;28;20030;-82
2022/02/22 10:22:25;;;;;;;5.78;2.17;;;;;;;;;;5010408;28;20026;-78
2022/02/22 10:25:01;;;;;;;5.47;1.75;;;;;;;;;;5009735;28;20046;-81
2022/02/22 10:27:27;;;;;;;12.25;2.60;;;;;;;;;;5008493;28;20337;-79
2022/02/22 10:30:00;;;;;;;4.22;2.25;;;;;;;;;;4995225;28;20042;-80
2022/02/22 10:32:30;;;;;;;8.02;2.47;;;;;;;;;;5011803;28;20065;-76
2022/02/22 10:34:58;;;;;;;10.02;2.80;;;;;;;;;;4996788;28;20441;-79
2022/02/22 10:37:34;;;;;;;9.00;2.10;;;;;;;;;;5012473;28;20036;-74
2022/02/22 10:40:00;;;;;;;3.55;1.55;;;;;;;;;;4998573;28;20397;-77
2022/02/22 10:42:35;;;;;;;6.78;2.28;;;;;;;;;;5011818;28;20107;-78
2022/02/22 10:45:08;;;;;;;3.30;1.90;;;;;;;;;;4999984;28;20038;-77
2022/02/22 10:47:39;;;;;;;4.43;1.58;;;;;;;;;;5012199;28;20037;-77
2022/02/22 10:50:06;;;;;;;2.95;1.33;;;;;;;;;;5011809;28;20088;-79
2022/02/22 10:52:32;;;;;;;4.25;1.05;;;;;;;;;;5011656;28;20038;-76
2022/02/22 10:54:59;;;;;;;12.38;2.28;;;;;;;;;;5010727;28;20058;-76
2022/02/22 10:57:25;;;;;;;2.08;1.45;;;;;;;;;;5010826;28;20029;-78
2022/02/22 10:59:51;;;;;;;5.38;1.65;;;;;;;;;;4996338;28;20041;-78
2022/02/22 11:02:18;;;;;;;4.40;2.22;;;;;;;;;;5011029;28;20477;-80
2022/02/22 11:04:45;;;;;;;7.22;1.40;;;;;;;;;;4991424;28;20042;-77
2022/02/22 11:07:16;;;;;;;5.55;1.60;;;;;;;;;;4992119;28;20085;-77
2022/02/22 11:09:44;;;;;;;6.18;1.38;;;;;;;;;;4992083;28;20490;-80
2022/02/22 11:12:22;;;;;;;3.75;1.58;;;;;;;;;;4991169;28;20113;-78
2022/02/22 11:14:48;;;;;;;3.05;1.63;;;;;;;;;;5006482;28;20034;-78
2022/02/22 11:17:33;;;;;;;2.55;1.40;;;;;;;;;;4994614;28;20041;-77
2022/02/22 11:19:59;;;;;;;;;;;;;;;;;;5001190;28;20045;-79
2022/02/22 11:22:26;;;;;;;3.58;1.05;;;;;;;;;;5001029;28;20360;-80
2022/02/22 11:24:57;;;;;;;10.05;2.78;;;;;;;;;;5002074;28;20384;-79
2022/02/22 11:27:24;;;;;;;2.88;1.58;;;;;;;;;;5000003;28;20027;-77
2022/02/22 11:29:59;;;;;;;3.88;1.48;;;;;;;;;;4998749;28;20148;-79
2022/02/22 11:32:26;;;;;;;9.00;2.45;;;;;;;;;;5001153;28;20050;-79
2022/02/22 11:34:52;;;;;;;7.97;1.65;;;;;;;;;;4999785;28;20038;-78
2022/02/22 11:37:28;;;;;;;3.75;1.63;;;;;;;;;;5002331;28;20025;-82
2022/02/22 11:39:55;;;;;;;5.40;1.63;;;;;;;;;;5002764;28;20080;-83
2022/02/22 11:42:21;;;;;;;2.08;1.40;;;;;;;;;;5009967;28;20034;-75
2022/02/22 11:45:00;;;;;;;10.23;2.53;;;;;;;;;;5006479;28;20046;-78
2022/02/22 11:47:26;;;;;;;9.77;2.40;;;;;;;;;;5000695;28;20033;-79
2022/02/22 11:50:02;;;;;;;3.10;1.40;;;;;;;;;;4991117;28;20030;-79
2022/02/22 11:52:46;;;;;;;3.30;1.55;;;;;;;;;;4993847;28;20040;-84
2022/02/22 11:55:16;;;;;;;4.53;2.38;;;;;;;;;;5007595;28;20026;-79
2022/02/22 11:57:52;;;;;;;5.07;1.77;;;;;;;;;;4993594;28;20053;-78
2022/02/22 12:00:19;;;;;;;6.32;1.30;;;;;;;;;;4991710;28;20041;-79
2022/02/22 12:02:45;;;;;;;2.53;1.13;;;;;;;;;;5001089;28;20113;-78
2022/02/22 12:05:38;;;;;;;3.22;1.50;;;;;;;;;;4993451;28;20091;-77
2022/02/22 12:08:04;;;;;;;7.60;3.10;;;;;;;;;;5008239;28;20037;-81
2022/02/22 12:10:32;;;;;;;6.35;1.95;;;;;;;;;;5010777;28;20041;-83
2022/02/22 12:13:17;;;;;;;7.63;3.33;;;;;;;;;;5009624;28;20505;-77
2022/02/22 12:15:43;;;;;;;;;;;;;;;;;;5005592;28;20109;-78
2022/02/22 12:18:13;;;;;;;2.53;1.63;;;;;;;;;;5009261;28;19905;-82
2022/02/22 12:20:39;;;;;;;4.30;1.65;;;;;;;;;;5014723;28;20033;-78
2022/02/22 12:23:05;;;;;;;5.25;1.58;;;;;;;;;;5014873;28;20026;-81
2022/02/22 12:25:33;;;;;;;5.40;1.95;;;;;;;;;;5014412;28;20038;-81
2022/02/22 12:27:59;;;;;;;5.45;1.30;;;;;;;;;;5012737;28;20034;-79
2022/02/22 12:30:35;;;;;;;3.13;2.17;;;;;;;;;;5013705;28;20026;-79
2022/02/22 12:33:01;;;;;;;3.78;2.13;;;;;;;;;;4994771;28;20054;-79
2022/02/22 12:35:46;;;;;;;3.10;1.70;;;;;;;;;;4994998;28;20022;-80
2022/02/22 12:38:12;;;;;;;4.93;1.75;;;;;;;;;;4997839;28;20030;-78
2022/02/22 12:40:38;;;;;;;4.20;1.85;;;;;;;;;;5014162;28;20022;-79
2022/02/22 12:43:08;;;;;;;7.13;1.50;;;;;;;;;;5009246;28;20485;-81
2022/02/22 12:45:35;;;;;;;4.75;1.70;;;;;;;;;;5013632;28;20045;-78
2022/02/22 12:48:05;;;;;;;3.08;2.10;;;;;;;;;;5010717;28;20038;-77
2022/02/22 12:50:31;;;;;;;3.38;1.83;;;;;;;;;;4996977;28;20038;-80
2022/02/22 12:52:57;;;;;;;2.70;1.98;;;;;;;;;;5000533;28;20038;-80
2022/02/22 12:55:24;;;;;;;2.65;1.92;;;;;;;;;;5004468;28;20030;-74
2022/02/22 12:57:50;;;;;;;4.03;2.88;;;;;;;;;;4994705;28;20029;-77
2022/02/22 13:00:22;;;;;;;2.78;2.00;;;;;;;;;;4997970;28;20506;-80
2022/02/22 13:02:49;;;;;;;6.65;3.25;;;;;;;;;;5011594;28;20049;-80
2022/02/22 13:05:15;;;;;;;3.08;2.47;;;;;;;;;;4997353;28;20038;-78
2022/02/22 13:07:48;;;;;;;4.50;1.95;;;;;;;;;;4995549;28;20386;-83
2022/02/22 13:10:15;;;;;;;3.33;2.25;;;;;;;;;;5001870;28;20034;-76
2022/02/22 13:12:41;;;;;;;5.43;3.22;;;;;;;;;;4995709;28;20095;-85
2022/02/22 13:15:09;;;;;;;3.13;2.08;;;;;;;;;;5013209;28;20084;-79
2022/02/22 13:17:36;;;;;;;4.10;2.72;;;;;;;;;;4995735;28;20817;-83
2022/02/22 13:20:03;;;;;;;6.22;2.60;;;;;;;;;;5009155;28;20042;-80
2022/02/22 13:22:31;;;;;;;4.07;2.53;;;;;;;;;;5011454;28;20026;-78
2022/02/22 13:24:57;;;;;;;3.20;2.03;;;;;;;;;;5010046;28;20077;-77
2022/02/22 13:27:33;;;;;;;8.20;3.20;;;;;;;;;;5012325;28;20026;-80
2022/02/22 13:30:04;;;;;;;3.67;2.55;;;;;;;;;;5002087;28;20033;-79
2022/02/22 13:32:34;;;;;;;2.60;1.63;;;;;;;;;;5013651;28;20054;-79
2022/02/22 13:35:00;;;;;;;3.72;2.35;;;;;;;;;;5013499;28;20030;-76
2022/02/22 13:37:39;;;;;;;3.50;2.33;;;;;;;;;;5011177;28;20385;-80
2022/02/22 13:40:07;;;;;;;2.85;1.90;;;;;;;;;;5001930;28;20025;-77
2022/02/22 13:42:34;;;;;;;9.38;3.53;;;;;;;;;;5012888;28;20072;-80
2022/02/22 13:45:01;;;;;;;6.65;2.90;;;;;;;;;;5012695;28;20041;-80
2022/02/22 13:47:45;;;;;;;4.93;2.58;;;;;;;;;;5006028;28;20530;-79
2022/02/22 13:50:17;;;;;;;7.25;4.28;;;;;;;;;;5001840;28;20038;-82
2022/02/22 13:52:52;;;;;;;6.35;3.83;;;;;;;;;;5013672;28;20026;-79
2022/02/22 13:55:18;;;;;;;3.47;2.63;;;;;;;;;;5013715;28;20103;-79
2022/02/22 13:57:47;;;;;;;6.10;3.45;;;;;;;;;;5012088;28;20061;-80
2022/02/22 14:00:13;;;;;;;3.67;2.90;;;;;;;;;;5005350;28;20038;-78
2022/02/22 14:02:40;;;;;;;4.57;3.00;;;;;;;;;;4999979;28;20027;-80
2022/02/22 14:05:11;;;;;;;5.93;3.10;;;;;;;;;;4999897;28;20417;-77
2022/02/22 14:07:39;;;;;;;7.43;4.60;;;;;;;;;;5026135;28;20061;-82
2022/02/22 14:10:05;;;;;;;8.23;4.25;;;;;;;;;;5006961;28;20048;-79
2022/02/22 14:12:32;;;;;;;6.28;3.75;;;;;;;;;;4998911;28;20417;-83
2022/02/22 14:14:58;;;;;;;7.18;4.40;;;;;;;;;;5013773;28;20033;-77
2022/02/22 14:17:25;;;;;;;5.70;3.45;;;;;;;;;;5009355;28;20465;-76
2022/02/22 14:19:51;;;;;;;4.05;3.45;;;;;;;;;;5002446;28;20552;-77
2022/02/22 14:22:20;;;;;;;4.10;3.63;;;;;;;;;;4998959;28;20027;-82
2022/02/22 14:24:46;;;;;;;6.72;4.53;;;;;;;;;;4996312;28;20093;-80
2022/02/22 14:27:12;;;;;;;5.70;3.75;;;;;;;;;;5003947;28;20022;-82